Aegean Viii — SXKO — position and weather

sailwx.info

Track history (hours):
 
Tides and Currents Weather Stations Pressure Air Temp Water Temp Dewpoint Dewpoint Depression Visibility Wind Speed Wind Dir Waves Ship Positions

Aegean Viii

Last reported at 2014-Sep-20 11:16 UTC. Time now 2014-Sep-20 12:00 UTC.
Position N 38°02' E 023°32'.

Length 12 m; draft 5.2 m.

Type: Tanker. MMSI: 240732000.

Date/timePositionNaut miles runAvg speedWind from/ knotsBaromVisibWave heightAir tempDewpointWater temp
2014-Sep-20 11:16N 38°02' E 023°32'0 0.1
2014-Sep-20 10:31N 38°02' E 023°32'0 0.0
2014-Sep-20 09:32N 38°02' E 023°32'7 6.8
2014-Sep-20 08:33N 37°57' E 023°36'1 1.1
2014-Sep-20 07:29N 37°56' E 023°38'0 0.0
2014-Sep-20 06:28N 37°56' E 023°38'0 0.0
2014-Sep-20 05:32N 37°56' E 023°38'6 6.1
2014-Sep-20 04:33N 38°01' E 023°32'1 0.1
2014-Sep-19 11:23N 38°02' E 023°32'5 5.8
2014-Sep-19 10:27N 37°57' E 023°36'0 0.0
2014-Sep-19 09:29N 37°57' E 023°36'0 0.0
2014-Sep-19 08:27N 37°57' E 023°36'0 0.1
2014-Sep-19 07:34N 37°57' E 023°36'2 2.0
2014-Sep-19 06:33N 37°56' E 023°38'0 0.0
2014-Sep-19 05:31N 37°56' E 023°38'0 0.0
2014-Sep-19 04:31N 37°56' E 023°38'0 0.0
2014-Sep-19 03:29N 37°56' E 023°38'3 3.0
2014-Sep-19 02:32N 37°57' E 023°35'0 0.1
2014-Sep-19 01:32N 37°57' E 023°35'0 0.0
2014-Sep-19 00:31N 37°57' E 023°35'0 0.0
2014-Sep-18 23:32N 37°57' E 023°35'0 0.0
2014-Sep-18 22:30N 37°57' E 023°35'0 0.0
2014-Sep-18 21:31N 37°57' E 023°35'0 0.1
2014-Sep-18 20:32N 37°57' E 023°35'0 0.0
2014-Sep-18 19:31N 37°57' E 023°35'0 0.0
2014-Sep-18 18:33N 37°57' E 023°35'1 1.3
2014-Sep-18 17:33N 37°58' E 023°33'4 0.2
2014-Sep-17 13:33N 38°02' E 023°34'0 0.0
2014-Sep-17 05:33N 38°02' E 023°34'2 0.0
2014-Sep-15 08:20N 38°02' E 023°32'0 0.0
2014-Sep-14 09:10N 38°02' E 023°32'5 8.4
2014-Sep-14 08:32N 37°57' E 023°34'0 0.0
2014-Sep-14 07:32N 37°57' E 023°34'0 0.0
2014-Sep-14 06:28N 37°57' E 023°34'  
Track history (hours):
 
Tides and Currents Weather Stations Pressure Air Temp Water Temp Dewpoint Dewpoint Depression Visibility Wind Speed Wind Dir Waves Ship Positions

Aegean Viii

Last reported at 2014-Sep-20 11:16 UTC. Time now 2014-Sep-20 12:00 UTC.
Position N 38°02' E 023°32'.

Length 12 m; draft 5.2 m.

Type: Tanker. MMSI: 240732000.

Date/timePositionNaut miles runAvg speedWind from/ knotsBaromVisibWave heightAir tempDewpointWater temp
2014-Sep-20 11:16N 38°02' E 023°32'0 0.1
2014-Sep-20 10:31N 38°02' E 023°32'0 0.0
2014-Sep-20 09:32N 38°02' E 023°32'7 6.8
2014-Sep-20 08:33N 37°57' E 023°36'1 1.1
2014-Sep-20 07:29N 37°56' E 023°38'0 0.0
2014-Sep-20 06:28N 37°56' E 023°38'0 0.0
2014-Sep-20 05:32N 37°56' E 023°38'6 6.1
2014-Sep-20 04:33N 38°01' E 023°32'1 0.1
2014-Sep-19 11:23N 38°02' E 023°32'5 5.8
2014-Sep-19 10:27N 37°57' E 023°36'0 0.0
2014-Sep-19 09:29N 37°57' E 023°36'0 0.0
2014-Sep-19 08:27N 37°57' E 023°36'0 0.1
2014-Sep-19 07:34N 37°57' E 023°36'2 2.0
2014-Sep-19 06:33N 37°56' E 023°38'0 0.0
2014-Sep-19 05:31N 37°56' E 023°38'0 0.0
2014-Sep-19 04:31N 37°56' E 023°38'0 0.0
2014-Sep-19 03:29N 37°56' E 023°38'3 3.0
2014-Sep-19 02:32N 37°57' E 023°35'0 0.1
2014-Sep-19 01:32N 37°57' E 023°35'0 0.0
2014-Sep-19 00:31N 37°57' E 023°35'0 0.0
2014-Sep-18 23:32N 37°57' E 023°35'0 0.0
2014-Sep-18 22:30N 37°57' E 023°35'0 0.0
2014-Sep-18 21:31N 37°57' E 023°35'0 0.1
2014-Sep-18 20:32N 37°57' E 023°35'0 0.0
2014-Sep-18 19:31N 37°57' E 023°35'0 0.0
2014-Sep-18 18:33N 37°57' E 023°35'1 1.3
2014-Sep-18 17:33N 37°58' E 023°33'4 0.2
2014-Sep-17 13:33N 38°02' E 023°34'0 0.0
2014-Sep-17 05:33N 38°02' E 023°34'2 0.0
2014-Sep-15 08:20N 38°02' E 023°32'0 0.0
2014-Sep-14 09:10N 38°02' E 023°32'5 8.4
2014-Sep-14 08:32N 37°57' E 023°34'0 0.0
2014-Sep-14 07:32N 37°57' E 023°34'0 0.0
2014-Sep-14 06:28N 37°57' E 023°34'  

Dump ship's entire track history